createdAt,value
2023-01-19T05:01:42.040Z,-0.06
2023-01-19T05:05:44.728Z,-0.17
2023-01-19T05:09:47.403Z,-0.27
2023-01-19T05:13:51.005Z,-0.36
2023-01-19T05:17:57.939Z,-0.32
2023-01-19T05:22:01.096Z,-0.39
2023-01-19T05:26:04.209Z,-0.49
2023-01-19T05:30:08.128Z,-0.56
2023-01-19T05:34:14.494Z,-0.67
2023-01-19T05:38:20.946Z,-0.72
2023-01-19T05:42:33.025Z,-0.90
2023-01-19T05:46:35.880Z,-0.79
2023-01-19T05:50:49.780Z,-0.79
2023-01-19T05:54:54.626Z,-0.93
2023-01-19T05:58:57.473Z,-0.88
2023-01-19T06:03:00.839Z,-0.93
2023-01-19T06:07:06.578Z,-0.98
2023-01-19T06:11:09.535Z,-0.88
2023-01-19T06:15:14.411Z,-0.79
2023-01-19T06:19:17.148Z,-0.66
2023-01-19T06:23:21.193Z,-0.52
2023-01-19T06:27:23.977Z,-0.50
2023-01-19T06:31:26.873Z,-0.45
2023-01-19T06:35:29.617Z,-0.42
2023-01-19T06:39:33.667Z,-0.45
2023-01-19T06:43:36.405Z,-0.51
2023-01-19T06:47:39.152Z,-0.50
2023-01-19T06:51:41.987Z,-0.43
2023-01-19T06:55:46.440Z,-0.31
2023-01-19T06:59:49.138Z,-0.12
2023-01-19T07:03:51.847Z,-0.01
2023-01-19T07:07:57.720Z,0.02
2023-01-19T07:12:01.679Z,-0.25
2023-01-19T07:16:09.127Z,-0.43
2023-01-19T07:20:14.488Z,-0.47
2023-01-19T07:24:17.416Z,-0.52
2023-01-19T07:28:21.960Z,-0.24
2023-01-19T07:32:24.664Z,0.01
2023-01-19T07:36:27.402Z,0.20
2023-01-19T07:40:30.114Z,0.37
2023-01-19T07:44:34.329Z,0.55
2023-01-19T07:48:37.271Z,0.59
2023-01-19T07:52:48.168Z,0.64
2023-01-19T07:56:50.798Z,0.63
2023-01-19T08:00:55.008Z,0.58
2023-01-19T08:05:04.340Z,0.51
2023-01-19T08:09:07.512Z,0.25
2023-01-19T08:13:10.072Z,0.12
2023-01-19T08:17:14.590Z,0.35
2023-01-19T08:21:17.554Z,0.64
2023-01-19T08:25:20.048Z,0.76
2023-01-19T08:29:22.557Z,1.03
2023-01-19T08:33:26.417Z,1.31
2023-01-19T08:37:28.894Z,1.32
2023-01-19T08:41:32.352Z,1.25
2023-01-19T08:45:35.157Z,1.29
2023-01-19T08:49:40.787Z,1.31
2023-01-19T08:53:43.741Z,1.52
2023-01-19T08:57:46.224Z,1.63
2023-01-19T09:01:48.922Z,1.75
2023-01-19T09:05:52.839Z,1.97
2023-01-19T09:09:55.441Z,1.95
2023-01-19T09:13:57.964Z,1.95
2023-01-19T09:18:00.814Z,1.97
2023-01-19T09:22:05.861Z,2.01
2023-01-19T09:26:08.451Z,1.92
2023-01-19T09:30:13.216Z,1.96
2023-01-19T09:34:15.730Z,2.05
2023-01-19T09:38:20.316Z,2.08
2023-01-19T09:42:31.375Z,2.04
2023-01-19T09:46:39.661Z,1.97
2023-01-19T09:50:46.635Z,2.14
2023-01-19T09:54:55.192Z,1.98
2023-01-19T09:58:57.737Z,1.60
2023-01-19T10:03:11.651Z,1.50
2023-01-19T10:07:24.295Z,1.34
2023-01-19T10:11:51.557Z,1.20
2023-01-19T10:16:03.707Z,1.38
2023-01-19T10:20:14.664Z,1.47
2023-01-19T10:24:21.955Z,1.53
2023-01-19T10:28:28.061Z,1.71
2023-01-19T10:32:35.813Z,1.71
2023-01-19T10:36:40.982Z,1.76
2023-01-19T10:40:51.612Z,1.72
2023-01-19T10:44:55.587Z,1.79
2023-01-19T10:48:58.241Z,1.82
2023-01-19T10:53:03.684Z,2.01
2023-01-19T10:57:10.343Z,2.16
2023-01-19T11:01:20.822Z,2.22
2023-01-19T11:05:26.868Z,2.41
2023-01-19T11:09:30.486Z,2.34
2023-01-19T11:13:33.263Z,2.34
2023-01-19T11:17:37.511Z,2.41
2023-01-19T11:21:40.112Z,2.46
2023-01-19T11:25:48.449Z,2.41
2023-01-19T11:29:58.818Z,2.51
2023-01-19T11:34:04.154Z,2.51
2023-01-19T11:38:18.189Z,2.68
2023-01-19T11:42:21.294Z,2.81
2023-01-19T11:46:27.556Z,2.88
2023-01-19T11:50:35.655Z,3.07
2023-01-19T11:54:46.137Z,3.21
2023-01-19T11:58:48.700Z,3.27
2023-01-19T12:02:56.574Z,3.35
2023-01-19T12:07:05.020Z,3.32
2023-01-19T12:11:11.490Z,3.34
2023-01-19T12:15:25.080Z,3.30
2023-01-19T12:19:28.644Z,3.44
2023-01-19T12:23:44.459Z,3.60
2023-01-19T12:27:48.641Z,3.46
2023-01-19T12:32:18.497Z,3.29
2023-01-19T12:36:38.513Z,3.15
2023-01-19T12:40:42.525Z,2.90
2023-01-19T12:44:47.016Z,2.85
2023-01-19T12:48:49.576Z,2.55
2023-01-19T12:52:58.286Z,2.61
2023-01-19T12:57:06.977Z,2.69
2023-01-19T13:01:15.361Z,2.87
2023-01-19T13:05:23.286Z,2.78
2023-01-19T13:09:30.623Z,2.83
2023-01-19T13:13:36.661Z,2.97
2023-01-19T13:17:50.625Z,3.00
2023-01-19T13:21:54.902Z,2.98
2023-01-19T13:26:04.700Z,3.05
2023-01-19T13:30:17.996Z,3.07
2023-01-19T13:34:24.211Z,2.93
2023-01-19T13:38:29.343Z,2.91
2023-01-19T13:42:36.988Z,2.98
2023-01-19T13:46:41.937Z,2.99
2023-01-19T13:50:58.128Z,2.94
2023-01-19T13:55:03.779Z,2.92
2023-01-19T13:59:12.430Z,2.99
2023-01-19T14:03:23.586Z,2.97
2023-01-19T14:07:27.061Z,2.91
2023-01-19T14:11:29.591Z,3.02
2023-01-19T14:15:34.410Z,2.98
2023-01-19T14:19:52.920Z,2.88
2023-01-19T14:24:06.531Z,2.82
2023-01-19T14:28:28.206Z,2.79
2023-01-19T14:32:30.768Z,2.75
2023-01-19T14:36:39.181Z,2.82
2023-01-19T14:40:41.708Z,2.79
2023-01-19T14:44:48.529Z,2.81
2023-01-19T14:48:53.661Z,2.76
2023-01-19T14:53:00.465Z,2.75
2023-01-19T14:57:03.001Z,2.74
2023-01-19T15:01:06.336Z,2.81
2023-01-19T15:05:09.833Z,2.86
2023-01-19T15:09:14.993Z,2.95
2023-01-19T15:13:21.426Z,3.07
2023-01-19T15:17:26.172Z,3.01
2023-01-19T15:21:28.695Z,3.01
2023-01-19T15:25:32.679Z,3.06
2023-01-19T15:29:35.219Z,3.13
2023-01-19T15:33:37.735Z,3.06
2023-01-19T15:37:40.295Z,2.95
2023-01-19T15:41:44.228Z,2.92
2023-01-19T15:45:51.351Z,2.94
2023-01-19T15:49:53.938Z,2.87
2023-01-19T15:53:56.958Z,2.81
2023-01-19T15:58:02.306Z,2.78
2023-01-19T16:02:05.790Z,2.71
2023-01-19T16:06:08.666Z,2.51
2023-01-19T16:10:12.740Z,2.45
2023-01-19T16:14:17.582Z,2.48
2023-01-19T16:18:20.297Z,2.63
2023-01-19T16:22:22.781Z,2.63
2023-01-19T16:26:28.209Z,2.54
2023-01-19T16:30:32.060Z,2.31
2023-01-19T16:34:34.530Z,2.28
2023-01-19T16:38:36.999Z,2.50
2023-01-19T16:42:40.737Z,2.70
2023-01-19T16:46:46.425Z,2.64
2023-01-19T16:50:58.758Z,2.61
2023-01-19T16:55:01.289Z,2.32
2023-01-19T16:59:03.795Z,2.20
2023-01-19T17:03:07.689Z,2.30
2023-01-19T17:07:10.324Z,2.41
2023-01-19T17:11:19.357Z,2.44
2023-01-19T17:15:21.885Z,2.53
2023-01-19T17:19:26.879Z,2.50
2023-01-19T17:23:29.759Z,2.40
2023-01-19T17:27:32.302Z,2.27
2023-01-19T17:31:35.759Z,2.11
2023-01-19T17:35:39.471Z,2.03
2023-01-19T17:39:42.227Z,2.03
2023-01-19T17:43:45.577Z,1.91
2023-01-19T17:47:49.328Z,1.85
2023-01-19T17:51:54.939Z,1.63
2023-01-19T17:56:03.827Z,1.61
2023-01-19T18:00:08.395Z,1.62
2023-01-19T18:04:16.941Z,1.70
2023-01-19T18:08:20.769Z,1.34
2023-01-19T18:12:23.570Z,0.99
2023-01-19T18:16:28.338Z,0.92
2023-01-19T18:20:32.185Z,0.90
2023-01-19T18:24:36.027Z,1.00
2023-01-19T18:28:39.001Z,0.97
2023-01-19T18:32:41.496Z,0.93
2023-01-19T18:36:44.421Z,0.64
2023-01-19T18:40:48.247Z,0.55
2023-01-19T18:44:50.744Z,0.47
2023-01-19T18:48:54.086Z,-0.10
2023-01-19T18:52:56.748Z,-0.15
2023-01-19T18:57:00.568Z,-0.02
2023-01-19T19:01:03.100Z,-0.01
2023-01-19T19:05:06.161Z,-0.14
2023-01-19T19:09:08.681Z,-0.47
2023-01-19T19:13:14.469Z,-0.75
2023-01-19T19:17:16.975Z,-1.02
2023-01-19T19:21:23.931Z,-1.34
2023-01-19T19:25:26.416Z,-1.18
2023-01-19T19:29:30.400Z,-1.17
2023-01-19T19:33:32.983Z,-1.24
2023-01-19T19:37:35.541Z,-1.63
2023-01-19T19:41:38.798Z,-1.74
2023-01-19T19:45:42.653Z,-1.91
2023-01-19T19:49:45.228Z,-1.57
2023-01-19T19:53:51.222Z,-1.39
2023-01-19T19:57:54.791Z,-1.37
2023-01-19T20:01:58.692Z,-1.51
2023-01-19T20:06:04.149Z,-1.73
2023-01-19T20:10:07.329Z,-1.87
2023-01-19T20:14:11.657Z,-1.74
2023-01-19T20:18:15.493Z,-1.29
2023-01-19T20:22:18.021Z,-0.89
2023-01-19T20:26:24.928Z,-0.93
2023-01-19T20:30:28.213Z,-1.02
2023-01-19T20:34:34.081Z,-0.91
2023-01-19T20:38:36.747Z,-0.97
2023-01-19T20:42:41.253Z,-0.78
2023-01-19T20:46:44.131Z,-0.45
2023-01-19T20:50:47.946Z,-0.23
2023-01-19T20:54:52.108Z,-0.19
2023-01-19T20:58:54.687Z,-0.26
2023-01-19T21:02:57.338Z,0.13
2023-01-19T21:07:01.173Z,0.17
2023-01-19T21:11:04.114Z,0.24
2023-01-19T21:15:07.759Z,0.35
2023-01-19T21:19:10.372Z,0.19
2023-01-19T21:23:14.194Z,0.06
2023-01-19T21:27:16.719Z,0.11
2023-01-19T21:31:20.774Z,0.26
2023-01-19T21:35:23.385Z,0.31
2023-01-19T21:39:27.348Z,0.42
2023-01-19T21:43:29.836Z,0.45
2023-01-19T21:47:32.363Z,0.61
2023-01-19T21:51:37.227Z,0.59
2023-01-19T21:55:45.370Z,0.39
2023-01-19T21:59:47.836Z,0.32
